createdAt,value
2023-02-22T00:00:44.466Z,4.35
2023-02-22T00:03:25.674Z,3.05
2023-02-22T00:05:58.338Z,3.58
2023-02-22T00:08:30.539Z,3.28
2023-02-22T00:10:58.241Z,2.63
2023-02-22T00:13:24.900Z,2.03
2023-02-22T00:15:51.668Z,2.40
2023-02-22T00:18:19.016Z,4.07
2023-02-22T00:20:46.015Z,2.53
2023-02-22T00:23:19.049Z,2.80
2023-02-22T00:25:46.676Z,8.48
2023-02-22T00:28:15.256Z,3.13
2023-02-22T00:30:45.057Z,3.72
2023-02-22T00:33:15.265Z,3.33
2023-02-22T00:35:44.708Z,2.33
2023-02-22T00:38:11.793Z,2.63
2023-02-22T00:40:40.199Z,3.75
2023-02-22T00:43:06.975Z,2.92
2023-02-22T00:45:34.423Z,3.88
2023-02-22T00:48:01.433Z,2.95
2023-02-22T00:50:29.246Z,3.20
2023-02-22T00:52:56.490Z,3.22
2023-02-22T00:55:25.045Z,2.45
2023-02-22T00:57:51.993Z,2.88
2023-02-22T01:00:27.021Z,2.55
2023-02-22T01:02:53.916Z,3.03
2023-02-22T01:05:22.543Z,2.70
2023-02-22T01:07:49.836Z,3.50
2023-02-22T01:10:19.397Z,2.92
2023-02-22T01:12:47.089Z,3.30
2023-02-22T01:15:13.751Z,4.10
2023-02-22T01:17:41.612Z,3.90
2023-02-22T01:20:12.453Z,3.97
2023-02-22T01:22:43.178Z,2.83
2023-02-22T01:25:10.916Z,2.10
2023-02-22T01:27:38.463Z,4.20
2023-02-22T01:30:09.274Z,4.05
2023-02-22T01:32:36.403Z,3.05
2023-02-22T01:35:08.567Z,3.88
2023-02-22T01:37:35.861Z,3.53
2023-02-22T01:40:04.110Z,2.58
2023-02-22T01:42:30.792Z,3.65
2023-02-22T01:45:31.177Z,3.00
2023-02-22T01:48:08.753Z,2.55
2023-02-22T01:50:38.746Z,2.38
2023-02-22T01:53:05.364Z,1.70
2023-02-22T01:55:32.345Z,1.92
2023-02-22T01:57:59.073Z,1.98
2023-02-22T02:00:27.668Z,2.75
2023-02-22T02:02:59.036Z,2.30
2023-02-22T02:05:31.420Z,2.83
2023-02-22T02:07:58.986Z,2.25
2023-02-22T02:10:26.864Z,2.78
2023-02-22T02:12:53.713Z,2.78
2023-02-22T02:15:23.373Z,2.78
2023-02-22T02:17:51.907Z,3.15
2023-02-22T02:20:41.278Z,2.40
2023-02-22T02:23:29.708Z,2.67
2023-02-22T02:26:17.707Z,2.97
2023-02-22T02:28:56.227Z,2.83
2023-02-22T02:32:20.264Z,2.83
2023-02-22T02:35:21.571Z,3.00
2023-02-22T02:38:09.712Z,2.40
2023-02-22T02:40:41.464Z,2.72
2023-02-22T02:43:17.686Z,2.13
2023-02-22T02:45:54.855Z,2.45
2023-02-22T02:48:23.548Z,1.90
2023-02-22T02:50:50.242Z,2.08
2023-02-22T02:53:21.007Z,2.38
2023-02-22T02:55:47.617Z,2.10
2023-02-22T02:58:20.086Z,2.17
2023-02-22T03:00:46.798Z,2.10
2023-02-22T03:03:42.202Z,2.20
2023-02-22T03:06:34.807Z,2.05
2023-02-22T03:09:19.717Z,1.65
2023-02-22T03:11:51.497Z,2.30
2023-02-22T03:14:24.826Z,2.30
2023-02-22T03:17:04.912Z,2.83
2023-02-22T03:19:38.905Z,3.35
2023-02-22T03:25:15.437Z,4.75
2023-02-22T03:27:53.343Z,5.97
2023-02-22T03:30:26.021Z,3.00
2023-02-22T03:32:55.245Z,2.75
2023-02-22T03:35:30.561Z,2.53
2023-02-22T03:37:58.431Z,3.45
2023-02-22T03:40:31.729Z,3.38
2023-02-22T03:43:07.061Z,3.30
2023-02-22T03:45:33.842Z,4.18
2023-02-22T03:48:26.142Z,3.50
2023-02-22T03:50:52.907Z,7.03
2023-02-22T03:53:19.586Z,3.83
2023-02-22T03:55:47.958Z,2.97
2023-02-22T03:58:14.664Z,5.18
2023-02-22T04:00:44.651Z,3.90
2023-02-22T04:03:11.787Z,5.55
2023-02-22T04:05:58.644Z,12.98
2023-02-22T04:08:25.345Z,4.82
2023-02-22T04:10:52.179Z,6.28
2023-02-22T04:13:19.040Z,5.38
2023-02-22T04:15:45.852Z,4.90
2023-02-22T04:18:12.581Z,4.53
2023-02-22T04:20:39.336Z,14.38
2023-02-22T04:23:05.946Z,31.23
2023-02-22T04:25:33.036Z,26.90
2023-02-22T04:27:59.779Z,36.13
2023-02-22T04:30:26.398Z,18.42
2023-02-22T04:32:53.100Z,11.32
2023-02-22T04:35:19.852Z,13.48
2023-02-22T04:37:46.481Z,47.10
2023-02-22T04:40:13.205Z,10.73
2023-02-22T04:42:40.014Z,11.35
2023-02-22T04:45:08.120Z,13.70
2023-02-22T04:47:35.514Z,5.68
2023-02-22T04:50:02.616Z,8.35
2023-02-22T04:52:29.377Z,8.13
2023-02-22T04:54:56.085Z,7.55
2023-02-22T04:57:22.700Z,6.05
2023-02-22T04:59:51.132Z,4.85
2023-02-22T05:02:18.375Z,7.22
2023-02-22T05:04:45.322Z,4.60
2023-02-22T05:07:12.352Z,10.57
2023-02-22T05:09:39.115Z,4.03
2023-02-22T05:12:06.021Z,6.13
2023-02-22T05:14:32.990Z,4.38
2023-02-22T05:16:59.754Z,4.32
2023-02-22T05:19:26.445Z,4.72
2023-02-22T05:21:53.431Z,13.38
2023-02-22T05:24:20.065Z,9.40
2023-02-22T05:26:46.757Z,9.93
2023-02-22T05:29:13.477Z,10.05
2023-02-22T05:31:41.957Z,6.93
2023-02-22T05:34:08.812Z,5.38
2023-02-22T05:36:35.547Z,14.20
2023-02-22T05:39:02.184Z,9.57
2023-02-22T05:41:28.824Z,8.05
2023-02-22T05:43:55.524Z,10.90
2023-02-22T05:46:22.210Z,7.38
2023-02-22T05:48:48.936Z,19.90
2023-02-22T05:51:15.913Z,17.35
2023-02-22T05:53:43.321Z,10.07
2023-02-22T05:56:09.945Z,10.13
2023-02-22T05:58:36.631Z,6.43
2023-02-22T06:01:03.617Z,11.48
2023-02-22T06:03:30.266Z,15.75
2023-02-22T06:05:58.064Z,11.18
2023-02-22T06:08:24.754Z,3.80
2023-02-22T06:10:51.466Z,3.85
2023-02-22T06:13:18.274Z,3.50
2023-02-22T06:15:44.911Z,3.88
2023-02-22T06:18:11.574Z,3.78
2023-02-22T06:20:38.305Z,3.78
2023-02-22T06:23:04.991Z,4.97
2023-02-22T06:25:31.914Z,3.42
2023-02-22T06:27:59.830Z,3.08
2023-02-22T06:30:26.905Z,2.83
2023-02-22T06:32:53.690Z,1.85
2023-02-22T06:35:20.639Z,4.60
2023-02-22T06:37:47.382Z,5.03
2023-02-22T06:40:14.889Z,4.18
2023-02-22T06:42:41.671Z,5.32
2023-02-22T06:45:08.787Z,5.60
2023-02-22T06:47:41.655Z,5.45
2023-02-22T06:50:18.521Z,4.15
2023-02-22T06:52:45.487Z,3.08
2023-02-22T06:55:12.121Z,2.35
2023-02-22T06:57:38.877Z,1.80
2023-02-22T07:00:07.292Z,2.20
2023-02-22T07:02:33.966Z,5.38
2023-02-22T07:05:00.657Z,5.82
2023-02-22T07:07:27.432Z,5.78
2023-02-22T07:09:54.008Z,3.58
2023-02-22T07:12:20.765Z,3.00
2023-02-22T07:14:47.383Z,3.03
2023-02-22T07:17:13.969Z,3.15
2023-02-22T07:19:40.616Z,2.55
2023-02-22T07:22:07.273Z,4.13
2023-02-22T07:24:35.152Z,2.63
2023-02-22T07:27:02.640Z,3.35
2023-02-22T07:29:29.403Z,2.95
2023-02-22T07:31:56.068Z,3.15
2023-02-22T07:34:22.945Z,5.47
2023-02-22T07:36:49.652Z,4.25
2023-02-22T07:39:16.237Z,2.33
2023-02-22T07:41:42.952Z,2.47
2023-02-22T07:44:09.712Z,4.60
2023-02-22T07:46:36.437Z,2.33
2023-02-22T07:49:03.108Z,1.55
2023-02-22T07:51:29.769Z,1.80
2023-02-22T07:53:56.481Z,2.58
2023-02-22T07:56:23.156Z,1.40
2023-02-22T07:58:49.881Z,2.38
2023-02-22T08:01:16.765Z,1.88
2023-02-22T08:03:43.839Z,1.30
2023-02-22T08:06:10.489Z,1.73
2023-02-22T08:08:37.159Z,1.60
2023-02-22T08:11:04.046Z,1.00
2023-02-22T08:13:30.696Z,1.27
2023-02-22T08:15:57.663Z,2.00
2023-02-22T08:18:24.695Z,24.98
2023-02-22T08:20:52.189Z,2.65
2023-02-22T08:23:19.267Z,3.33
2023-02-22T08:25:45.978Z,6.78
2023-02-22T08:28:15.120Z,4.82
2023-02-22T08:30:44.794Z,2.28
2023-02-22T08:33:14.628Z,9.50
2023-02-22T08:35:41.518Z,3.63
2023-02-22T08:38:08.422Z,4.05
2023-02-22T08:40:36.056Z,1.45
2023-02-22T08:43:02.978Z,1.17
2023-02-22T08:45:29.770Z,1.20
2023-02-22T08:47:57.762Z,1.30
2023-02-22T08:50:26.498Z,1.00
2023-02-22T08:52:58.695Z,0.82
2023-02-22T08:55:26.711Z,0.88
2023-02-22T08:57:53.651Z,1.65
2023-02-22T09:00:26.113Z,1.30
2023-02-22T09:02:52.880Z,1.70
2023-02-22T09:05:19.615Z,1.17
2023-02-22T09:07:46.358Z,1.10
2023-02-22T09:10:15.512Z,1.15
2023-02-22T09:12:42.712Z,3.70
2023-02-22T09:15:09.731Z,3.15
2023-02-22T09:17:37.436Z,13.25
2023-02-22T09:20:05.735Z,5.43
2023-02-22T09:22:32.441Z,4.85
2023-02-22T09:25:02.571Z,3.47
2023-02-22T09:27:34.657Z,2.45
2023-02-22T09:30:01.387Z,1.80
2023-02-22T09:32:28.266Z,2.58
2023-02-22T09:34:55.768Z,1.98
2023-02-22T09:37:22.489Z,2.13
2023-02-22T09:39:49.301Z,3.17
2023-02-22T09:42:15.925Z,1.25
2023-02-22T09:44:54.807Z,11.75
2023-02-22T09:47:38.915Z,13.50
2023-02-22T09:50:26.779Z,2.10
2023-02-22T09:53:05.398Z,1.48
2023-02-22T09:55:38.352Z,4.90
2023-02-22T09:58:23.766Z,2.58
2023-02-22T10:00:54.016Z,1.58
2023-02-22T10:03:28.539Z,3.50
2023-02-22T10:06:03.183Z,1.10
2023-02-22T10:08:33.276Z,1.27
2023-02-22T10:11:12.816Z,1.00
2023-02-22T10:13:58.205Z,1.85
2023-02-22T10:16:54.479Z,1.27
2023-02-22T10:19:21.080Z,1.30
2023-02-22T10:21:54.347Z,0.95
2023-02-22T10:24:45.632Z,0.90
2023-02-22T10:27:18.179Z,1.10
2023-02-22T10:29:48.359Z,1.00
2023-02-22T10:32:19.148Z,0.75
2023-02-22T10:34:51.560Z,0.80
2023-02-22T10:37:23.793Z,1.00
2023-02-22T10:39:50.528Z,0.98
2023-02-22T10:42:17.236Z,1.85
2023-02-22T10:44:43.971Z,1.45
2023-02-22T10:47:11.503Z,1.58
2023-02-22T10:49:44.263Z,2.10
2023-02-22T10:52:19.001Z,2.58
2023-02-22T10:54:46.856Z,1.08
2023-02-22T10:57:13.654Z,0.98
2023-02-22T10:59:42.059Z,1.77
2023-02-22T11:02:29.548Z,1.73
2023-02-22T11:04:59.410Z,1.15
2023-02-22T11:07:30.955Z,1.83
2023-02-22T11:10:05.534Z,1.13
2023-02-22T11:12:33.442Z,1.02
2023-02-22T11:15:22.325Z,1.80
2023-02-22T11:17:52.647Z,1.10
2023-02-22T11:20:25.828Z,2.25
2023-02-22T11:22:54.743Z,0.95
2023-02-22T11:25:23.421Z,3.47
2023-02-22T11:27:50.129Z,4.80
2023-02-22T11:30:29.582Z,4.20
2023-02-22T11:33:03.211Z,3.67
2023-02-22T11:35:31.243Z,4.93
2023-02-22T11:38:17.378Z,1.83
2023-02-22T11:40:44.901Z,1.70
2023-02-22T11:43:16.937Z,1.50
2023-02-22T11:46:03.072Z,1.35
2023-02-22T11:48:34.907Z,1.33
2023-02-22T11:51:16.905Z,1.80
2023-02-22T11:54:19.532Z,1.95
2023-02-22T11:56:48.248Z,1.92
2023-02-22T11:59:34.418Z,1.70
2023-02-22T12:02:19.741Z,0.90
2023-02-22T12:04:57.990Z,1.42
2023-02-22T12:07:30.846Z,1.30
2023-02-22T12:09:57.397Z,1.63
2023-02-22T12:12:51.286Z,1.70
2023-02-22T12:15:42.853Z,1.60
2023-02-22T12:18:24.877Z,1.45
2023-02-22T12:20:56.921Z,1.50
2023-02-22T12:24:04.025Z,1.65
2023-02-22T12:26:36.570Z,1.50
2023-02-22T12:29:27.750Z,1.60
2023-02-22T12:32:05.401Z,1.25
2023-02-22T12:34:56.359Z,1.45
2023-02-22T12:37:24.792Z,1.60
2023-02-22T12:40:09.669Z,1.48
2023-02-22T12:42:51.095Z,1.73
2023-02-22T12:45:30.618Z,1.55
2023-02-22T12:48:21.607Z,1.80
2023-02-22T12:50:49.887Z,2.00
2023-02-22T12:53:31.457Z,1.80
2023-02-22T12:56:19.858Z,1.63
2023-02-22T12:59:02.963Z,1.73
2023-02-22T13:01:34.853Z,1.52
2023-02-22T13:04:19.519Z,1.83
2023-02-22T13:07:11.638Z,4.30
2023-02-22T13:09:59.992Z,2.00
2023-02-22T13:12:35.909Z,1.77
2023-02-22T13:15:11.059Z,2.13
2023-02-22T13:18:16.341Z,1.70
2023-02-22T13:21:01.605Z,1.90
2023-02-22T13:23:34.156Z,1.88
2023-02-22T13:26:12.601Z,5.03
2023-02-22T13:28:43.530Z,2.72
2023-02-22T13:31:36.257Z,1.88
2023-02-22T13:34:16.736Z,1.83
2023-02-22T13:36:58.123Z,1.88
2023-02-22T13:40:06.788Z,1.95
2023-02-22T13:43:02.417Z,2.03
2023-02-22T13:45:31.711Z,2.10
2023-02-22T13:48:19.303Z,2.67
2023-02-22T13:50:55.401Z,1.77
2023-02-22T13:53:25.241Z,1.67
2023-02-22T13:55:54.112Z,1.77
2023-02-22T13:58:21.237Z,1.80
2023-02-22T14:00:50.247Z,2.13
2023-02-22T14:03:30.142Z,2.10
2023-02-22T14:06:00.937Z,1.88
2023-02-22T14:08:31.666Z,2.00
2023-02-22T14:11:01.888Z,1.55
2023-02-22T14:13:53.777Z,1.55
2023-02-22T14:16:25.359Z,2.20
2023-02-22T14:19:14.449Z,1.73
2023-02-22T14:22:04.484Z,2.58
2023-02-22T14:24:44.703Z,2.17
2023-02-22T14:27:11.331Z,2.47
2023-02-22T14:29:37.986Z,2.45
2023-02-22T14:32:10.546Z,1.80
2023-02-22T14:34:58.221Z,2.00
2023-02-22T14:37:29.672Z,2.00
2023-02-22T14:40:26.442Z,1.60
2023-02-22T14:43:01.989Z,1.50
2023-02-22T14:45:33.359Z,2.00
2023-02-22T14:48:11.629Z,1.90
2023-02-22T14:50:41.277Z,1.83
2023-02-22T14:53:12.897Z,2.70
2023-02-22T14:55:43.957Z,2.80
2023-02-22T14:58:18.686Z,2.42
2023-02-22T15:00:47.198Z,2.10
2023-02-22T15:03:37.566Z,2.70
2023-02-22T15:06:20.367Z,2.42
2023-02-22T15:08:50.057Z,1.95
2023-02-22T15:11:32.712Z,2.10
2023-02-22T15:14:00.273Z,2.05
2023-02-22T15:16:28.738Z,2.10
2023-02-22T15:19:00.001Z,2.92
2023-02-22T15:21:28.006Z,5.72
2023-02-22T15:23:58.242Z,5.47
2023-02-22T15:26:59.016Z,8.07
2023-02-22T15:29:33.412Z,10.23
2023-02-22T15:32:00.197Z,6.88
2023-02-22T15:34:31.423Z,7.60
2023-02-22T15:37:06.508Z,6.10
2023-02-22T15:39:34.603Z,7.47
2023-02-22T15:42:23.088Z,6.78
2023-02-22T15:44:54.872Z,8.48
2023-02-22T15:47:27.421Z,8.77
2023-02-22T15:50:23.723Z,8.68
2023-02-22T15:52:58.209Z,9.18
2023-02-22T15:55:27.708Z,4.78
2023-02-22T15:57:54.455Z,3.40
2023-02-22T16:00:36.049Z,3.20
2023-02-22T16:03:04.735Z,2.72
2023-02-22T16:05:47.261Z,3.28
2023-02-22T16:08:26.085Z,2.78
2023-02-22T16:11:05.251Z,2.22
2023-02-22T16:13:35.461Z,2.10
2023-02-22T16:16:22.493Z,2.85
2023-02-22T16:18:49.622Z,2.88
2023-02-22T16:21:21.829Z,6.97
2023-02-22T16:23:59.121Z,13.65
2023-02-22T16:26:32.466Z,16.85
2023-02-22T16:29:09.217Z,18.83
2023-02-22T16:31:39.639Z,17.95
2023-02-22T16:34:07.573Z,14.82
2023-02-22T16:36:52.482Z,18.02
2023-02-22T16:39:37.417Z,14.32
2023-02-22T16:42:05.107Z,9.07
2023-02-22T16:44:31.738Z,8.50
2023-02-22T16:46:59.402Z,15.02
2023-02-22T16:49:26.055Z,14.50
2023-02-22T16:51:59.619Z,16.17
2023-02-22T16:54:27.339Z,14.02
2023-02-22T16:56:55.808Z,10.73
2023-02-22T16:59:22.499Z,36.67
2023-02-22T17:01:49.299Z,18.60
2023-02-22T17:04:21.207Z,20.83
2023-02-22T17:06:48.124Z,22.77
2023-02-22T17:09:15.581Z,32.08
2023-02-22T17:11:42.629Z,25.73
2023-02-22T17:14:10.463Z,33.95
2023-02-22T17:16:37.095Z,34.45
2023-02-22T17:19:05.148Z,22.95
2023-02-22T17:21:31.907Z,21.27
2023-02-22T17:23:58.558Z,17.15
2023-02-22T17:26:26.275Z,14.75
2023-02-22T17:28:53.125Z,16.73
2023-02-22T17:31:21.877Z,17.20
2023-02-22T17:33:48.893Z,15.38
2023-02-22T17:36:16.078Z,21.88
2023-02-22T17:38:43.272Z,18.23
2023-02-22T17:41:09.902Z,22.38
2023-02-22T17:43:36.763Z,11.25
2023-02-22T17:46:08.046Z,12.55
2023-02-22T17:48:35.251Z,25.02
2023-02-22T17:51:06.163Z,23.35
2023-02-22T17:53:33.258Z,26.20
2023-02-22T17:56:04.685Z,22.30
2023-02-22T17:58:31.431Z,25.85
2023-02-22T18:00:59.318Z,24.48
2023-02-22T18:03:26.550Z,25.83
2023-02-22T18:05:56.212Z,20.65
2023-02-22T18:08:26.239Z,17.55
2023-02-22T18:10:56.361Z,17.23
2023-02-22T18:13:24.428Z,17.45
2023-02-22T18:15:51.211Z,15.68
2023-02-22T18:18:18.072Z,15.55
2023-02-22T18:20:46.555Z,14.48
2023-02-22T18:23:19.479Z,13.57
2023-02-22T18:26:07.615Z,12.43
2023-02-22T18:28:36.330Z,12.07
2023-02-22T18:31:07.311Z,10.35
2023-02-22T18:33:34.115Z,10.80
2023-02-22T18:36:00.783Z,10.98
2023-02-22T18:38:27.454Z,9.77
2023-02-22T18:41:06.526Z,9.90
2023-02-22T18:43:35.273Z,9.00
2023-02-22T18:46:21.518Z,8.18
2023-02-22T18:48:49.053Z,7.40
2023-02-22T18:51:17.143Z,7.75
2023-02-22T18:53:47.154Z,6.70
2023-02-22T18:56:21.842Z,5.47
2023-02-22T18:58:52.412Z,6.22
2023-02-22T19:01:19.309Z,7.45
2023-02-22T19:03:48.975Z,9.07
2023-02-22T19:06:17.480Z,8.32
2023-02-22T19:08:44.833Z,10.10
2023-02-22T19:11:17.957Z,15.65
2023-02-22T19:13:46.448Z,6.18
2023-02-22T19:16:13.264Z,6.80
2023-02-22T19:18:40.009Z,13.93
2023-02-22T19:21:08.695Z,11.43
2023-02-22T19:23:37.466Z,11.93
2023-02-22T19:26:04.884Z,10.02
2023-02-22T19:28:34.323Z,14.77
2023-02-22T19:31:14.968Z,12.88
2023-02-22T19:33:41.856Z,13.35
2023-02-22T19:36:09.274Z,16.20
2023-02-22T19:38:36.088Z,13.13
2023-02-22T19:41:12.607Z,9.98
2023-02-22T19:43:39.494Z,12.77
2023-02-22T19:46:06.474Z,14.77
2023-02-22T19:48:33.275Z,13.05
2023-02-22T19:51:06.815Z,17.65
2023-02-22T19:53:39.100Z,24.23
2023-02-22T19:56:10.775Z,25.65
2023-02-22T19:58:58.533Z,16.92
2023-02-22T20:01:30.387Z,20.52
2023-02-22T20:04:00.999Z,13.02
2023-02-22T20:06:29.067Z,18.73
2023-02-22T20:08:56.117Z,22.00
2023-02-22T20:11:23.426Z,32.30
2023-02-22T20:13:50.123Z,18.35
2023-02-22T20:16:17.131Z,24.48
2023-02-22T20:18:44.706Z,28.17
2023-02-22T20:21:14.020Z,30.00
2023-02-22T20:23:44.286Z,44.38
2023-02-22T20:26:30.527Z,29.48
2023-02-22T20:28:59.286Z,21.20
2023-02-22T20:31:26.220Z,14.07
2023-02-22T20:33:54.154Z,13.57
2023-02-22T20:36:22.228Z,22.35
2023-02-22T20:38:51.463Z,13.75
2023-02-22T20:41:29.682Z,10.48
2023-02-22T20:43:56.549Z,9.50
2023-02-22T20:46:24.076Z,9.32
2023-02-22T20:48:58.411Z,8.70
2023-02-22T20:51:25.604Z,8.35
2023-02-22T20:53:52.424Z,12.30
2023-02-22T20:56:21.051Z,13.60
2023-02-22T20:58:47.891Z,10.45
2023-02-22T21:01:17.179Z,9.18
2023-02-22T21:03:44.193Z,7.60
2023-02-22T21:06:14.989Z,8.05
2023-02-22T21:08:45.748Z,7.60
2023-02-22T21:11:13.261Z,7.47
2023-02-22T21:13:40.528Z,7.30
2023-02-22T21:16:07.825Z,13.40
2023-02-22T21:18:34.507Z,9.32
2023-02-22T21:21:12.436Z,7.72
2023-02-22T21:23:40.207Z,4.82
2023-02-22T21:26:07.412Z,4.65
2023-02-22T21:28:53.132Z,4.60
2023-02-22T21:31:24.376Z,4.60
2023-02-22T21:33:52.985Z,4.38
2023-02-22T21:36:20.081Z,15.00
2023-02-22T21:38:49.016Z,14.40
2023-02-22T21:41:16.837Z,14.77
2023-02-22T21:43:43.900Z,18.50
2023-02-22T21:46:10.838Z,7.00
2023-02-22T21:48:45.128Z,5.10
2023-02-22T21:51:13.936Z,9.10
2023-02-22T21:53:47.881Z,12.32
2023-02-22T21:56:15.641Z,14.27
2023-02-22T21:58:46.042Z,11.30
2023-02-22T22:01:17.384Z,6.03
2023-02-22T22:03:45.167Z,7.20
2023-02-22T22:06:13.676Z,8.70
2023-02-22T22:08:41.272Z,8.68
2023-02-22T22:11:09.398Z,9.55
2023-02-22T22:13:37.733Z,6.90
2023-02-22T22:16:06.240Z,7.38
2023-02-22T22:18:32.909Z,7.68
2023-02-22T22:20:59.794Z,6.82
2023-02-22T22:23:26.596Z,5.72
2023-02-22T22:26:02.112Z,5.95
2023-02-22T22:28:28.812Z,8.25
2023-02-22T22:30:55.563Z,5.32
2023-02-22T22:33:22.470Z,5.20
2023-02-22T22:35:49.252Z,5.80
2023-02-22T22:38:15.886Z,5.95
2023-02-22T22:40:42.545Z,6.50
2023-02-22T22:43:09.158Z,8.30
2023-02-22T22:45:35.843Z,7.68
2023-02-22T22:48:04.750Z,9.32
2023-02-22T22:50:31.509Z,9.98
2023-02-22T22:52:58.215Z,8.75
2023-02-22T22:55:24.939Z,7.40
2023-02-22T22:57:54.281Z,7.72
2023-02-22T23:00:34.886Z,8.57
2023-02-22T23:03:01.702Z,9.50
2023-02-22T23:05:29.299Z,10.15
2023-02-22T23:07:56.431Z,10.18
2023-02-22T23:10:27.297Z,10.75
2023-02-22T23:12:55.508Z,9.85
2023-02-22T23:15:24.522Z,12.02
2023-02-22T23:17:56.038Z,10.40
2023-02-22T23:20:26.222Z,7.95
2023-02-22T23:22:53.845Z,8.20
2023-02-22T23:25:21.065Z,5.85
2023-02-22T23:27:48.223Z,6.50
2023-02-22T23:30:18.641Z,6.07
2023-02-22T23:32:46.779Z,6.85
2023-02-22T23:35:14.911Z,6.68
2023-02-22T23:37:42.349Z,7.07
2023-02-22T23:40:16.957Z,5.10
2023-02-22T23:42:48.851Z,5.88
2023-02-22T23:45:22.822Z,7.22
2023-02-22T23:50:25.527Z,7.18
2023-02-22T23:52:59.577Z,7.47
2023-02-22T23:57:59.331Z,4.95
